North Newton, KS

1:01 AM CDT on July 26, 2016 (GMT -0500)
APRSWXNET | | Change Station

Elev 1515 ft 38.18 °N, 97.30 °W | Updated 31 minutes ago

Mostly Cloudy
Mostly Cloudy
72 °F
Feels Like 72 °F
N
0
Wind Variable Wind from North
Gusts 0.0 mph

Today
High -- | Low -- °F
--% Chance of Precip.
Yesterday
High -- | Low -- °F
Precip. -- in
Pressure 30.05 in
Visibility 10.0 miles
Clouds Mostly Cloudy 11000 ft
Dew Point 70 °F
Humidity 93%
Rainfall in
Snow Depth Not available.
6:27 AM 8:43 PM
Waning Gibbous, 58% visible
METAR KEWK 260556Z AUTO 08004KT 10SM BKN110 22/22 A3009 RMK AO2 SLP175 T02220217 10267 20222 53007
Pressure 30.05 in
Visibility 10.0 miles
Clouds Mostly Cloudy 11000 ft
Dew Point 70 °F
Humidity 93%
Rainfall in
Snow Depth Not available.
6:27 AM 8:43 PM
Waning Gibbous, 58% visible
METAR KEWK 260556Z AUTO 08004KT 10SM BKN110 22/22 A3009 RMK AO2 SLP175 T02220217 10267 20222 53007

10-Day Weather Forecast

Almanac

Astronomy

Jul. 26, 2016 Rise Set
Actual Time
Civil Twilight
Nautical Twilight
Astronomical Twilight
Moon
Length of Visible Light
Length of Day
Tomorrow will be .
, % of the Moon is Illuminated

Today's Extremes

State Highs State Lows

Community

WunderPhotos

Upload Photos

1,927,547 photos uploaded!

WunderBlog® & News

Nearby

Air Quality

  Air Quality AQ Index Pollutant
Not available.

Snow Depth

Station Depth Elevation

Earthquake Activity

City Distance Mag. Time & Date
Minimum magnitude displayed is 2.5.

Coastal Water Temperatures

Place Temperature

Stations

Nearby Weather Stations

Station Location Temp. Windchill Dew Point Humidity Wind Precip. Elev Updated Type
                   

Watches & Warnings

There are currently no watches in effect.